CheckWX is a tool to help pilots better visualize weather data.  It is not intended as a substitute for an official pre-flight weather briefing.

13:55:56 UTC

1M5 METAR
Portland Municipal Airport
Portland, Tennessee, USA
Current

21 mins ago

K1M5 201335Z AUTO 27004KT 10SM FEW035 BKN070 28/25 A3007 RMK A01
Observed
Jul-20 @ 13:35 UTC
Wind
  • 270° at 4 KTS
Visibility
10 SM
Flight Rules
VFR
Cloud Levels
  • Few at 3,500' AGL
  • Broken at 7,000' AGL
Temperature
28°C / 82°F
Dewpoint
25°C / 77°F
Heat Index
32°C / 90°F
Humidity
84%
Altimeter
30.07" Hg
Pressure
1018.32 hPa
Previous

41 mins ago

K1M5 201315Z AUTO 00000KT 10SM FEW031 SCT037 28/25 A3008 RMK A01
Observed
Jul-20 @ 13:15 UTC
Visibility
10 SM
Flight Rules
VFR
Cloud Levels
  • Few at 3,100' AGL
  • Scattered at 3,700' AGL
Temperature
28°C / 82°F
Dewpoint
25°C / 77°F
Heat Index
32°C / 90°F
Humidity
84%
Altimeter
30.08" Hg
Pressure
1018.62 hPa
Previous

1 hour ago

K1M5 201255Z AUTO 25004KT 10SM FEW037 27/25 A3007 RMK A01
Observed
Jul-20 @ 12:55 UTC
Wind
  • 250° at 4 KTS
Visibility
10 SM
Flight Rules
VFR
Cloud Levels
  • Few at 3,700' AGL
Temperature
27°C / 81°F
Dewpoint
25°C / 77°F
Heat Index
31°C / 88°F
Humidity
89%
Altimeter
30.07" Hg
Pressure
1018.32 hPa